sensor_id;sensor_type;location;lat;lon;timestamp;temperature;humidity
43043;DHT22;28667;50.758;6.096;2023-02-01T00:01:34;4.80;99.90
43043;DHT22;28667;50.758;6.096;2023-02-01T00:03:59;4.80;99.90
43043;DHT22;28667;50.758;6.096;2023-02-01T00:06:25;4.80;99.90
43043;DHT22;28667;50.758;6.096;2023-02-01T00:08:54;4.90;99.90
43043;DHT22;28667;50.758;6.096;2023-02-01T00:11:20;4.90;99.90
43043;DHT22;28667;50.758;6.096;2023-02-01T00:13:46;5.00;99.90
43043;DHT22;28667;50.758;6.096;2023-02-01T00:18:43;5.00;99.90
43043;DHT22;28667;50.758;6.096;2023-02-01T00:21:10;5.00;99.90
43043;DHT22;28667;50.758;6.096;2023-02-01T00:23:36;5.10;99.90
43043;DHT22;28667;50.758;6.096;2023-02-01T00:26:02;5.10;99.90
43043;DHT22;28667;50.758;6.096;2023-02-01T00:28:28;5.10;99.90
43043;DHT22;28667;50.758;6.096;2023-02-01T00:31:00;5.10;99.90
43043;DHT22;28667;50.758;6.096;2023-02-01T00:33:27;5.20;99.90
43043;DHT22;28667;50.758;6.096;2023-02-01T00:36:26;5.20;99.90
43043;DHT22;28667;50.758;6.096;2023-02-01T00:38:45;5.20;99.90
43043;DHT22;28667;50.758;6.096;2023-02-01T00:41:12;5.20;99.90
43043;DHT22;28667;50.758;6.096;2023-02-01T00:43:38;5.20;99.90
43043;DHT22;28667;50.758;6.096;2023-02-01T00:46:04;5.20;99.90
43043;DHT22;28667;50.758;6.096;2023-02-01T00:48:30;5.20;99.90
43043;DHT22;28667;50.758;6.096;2023-02-01T00:50:59;5.20;99.90
43043;DHT22;28667;50.758;6.096;2023-02-01T00:53:26;5.20;99.90
43043;DHT22;28667;50.758;6.096;2023-02-01T00:55:51;5.20;99.90
43043;DHT22;28667;50.758;6.096;2023-02-01T00:58:17;5.20;99.90
43043;DHT22;28667;50.758;6.096;2023-02-01T01:00:43;5.20;99.90
43043;DHT22;28667;50.758;6.096;2023-02-01T01:03:08;5.20;99.90
43043;DHT22;28667;50.758;6.096;2023-02-01T01:05:44;5.20;99.90
43043;DHT22;28667;50.758;6.096;2023-02-01T01:08:10;5.20;99.90
43043;DHT22;28667;50.758;6.096;2023-02-01T01:10:35;5.20;99.90
43043;DHT22;28667;50.758;6.096;2023-02-01T01:13:01;5.20;99.90
43043;DHT22;28667;50.758;6.096;2023-02-01T01:15:26;5.20;99.90
43043;DHT22;28667;50.758;6.096;2023-02-01T01:17:52;5.20;99.90
43043;DHT22;28667;50.758;6.096;2023-02-01T01:20:17;5.10;99.90
43043;DHT22;28667;50.758;6.096;2023-02-01T01:22:47;5.10;99.90
43043;DHT22;28667;50.758;6.096;2023-02-01T01:25:13;5.10;99.90
43043;DHT22;28667;50.758;6.096;2023-02-01T01:27:38;5.10;99.90
43043;DHT22;28667;50.758;6.096;2023-02-01T01:30:04;5.10;99.90
43043;DHT22;28667;50.758;6.096;2023-02-01T01:32:30;5.10;99.90
43043;DHT22;28667;50.758;6.096;2023-02-01T01:34:56;5.10;99.90
43043;DHT22;28667;50.758;6.096;2023-02-01T01:37:21;5.10;99.90
43043;DHT22;28667;50.758;6.096;2023-02-01T01:39:47;5.10;99.90
43043;DHT22;28667;50.758;6.096;2023-02-01T01:42:12;5.10;99.90
43043;DHT22;28667;50.758;6.096;2023-02-01T01:44:56;5.10;99.90
43043;DHT22;28667;50.758;6.096;2023-02-01T01:47:22;5.10;99.90
43043;DHT22;28667;50.758;6.096;2023-02-01T01:49:47;5.10;99.90
43043;DHT22;28667;50.758;6.096;2023-02-01T01:52:14;5.10;99.90
43043;DHT22;28667;50.758;6.096;2023-02-01T01:54:43;5.10;99.90
43043;DHT22;28667;50.758;6.096;2023-02-01T01:57:11;5.10;99.90
43043;DHT22;28667;50.758;6.096;2023-02-01T01:59:38;5.10;99.90
43043;DHT22;28667;50.758;6.096;2023-02-01T02:02:04;5.10;99.90
43043;DHT22;28667;50.758;6.096;2023-02-01T02:04:30;5.10;99.90
43043;DHT22;28667;50.758;6.096;2023-02-01T02:07:01;5.10;99.90
43043;DHT22;28667;50.758;6.096;2023-02-01T02:09:28;5.10;99.90
43043;DHT22;28667;50.758;6.096;2023-02-01T02:11:53;5.10;99.90
43043;DHT22;28667;50.758;6.096;2023-02-01T02:14:19;5.10;99.90
43043;DHT22;28667;50.758;6.096;2023-02-01T02:40:49;5.10;99.90
43043;DHT22;28667;50.758;6.096;2023-02-01T02:46:44;5.10;99.90
43043;DHT22;28667;50.758;6.096;2023-02-01T02:49:39;5.10;99.90
43043;DHT22;28667;50.758;6.096;2023-02-01T02:52:14;5.10;99.90
43043;DHT22;28667;50.758;6.096;2023-02-01T02:54:59;5.20;99.90
43043;DHT22;28667;50.758;6.096;2023-02-01T02:57:34;5.20;99.90
43043;DHT22;28667;50.758;6.096;2023-02-01T03:00:20;5.20;99.90
43043;DHT22;28667;50.758;6.096;2023-02-01T03:03:05;5.20;99.90
43043;DHT22;28667;50.758;6.096;2023-02-01T03:05:49;5.20;99.90
43043;DHT22;28667;50.758;6.096;2023-02-01T03:08:17;5.30;99.90
43043;DHT22;28667;50.758;6.096;2023-02-01T03:10:48;5.20;99.90
43043;DHT22;28667;50.758;6.096;2023-02-01T03:13:38;5.30;99.90
43043;DHT22;28667;50.758;6.096;2023-02-01T03:18:52;5.30;99.90
43043;DHT22;28667;50.758;6.096;2023-02-01T03:21:25;5.30;99.90
43043;DHT22;28667;50.758;6.096;2023-02-01T03:23:52;5.30;99.90
43043;DHT22;28667;50.758;6.096;2023-02-01T03:26:18;5.30;99.90
43043;DHT22;28667;50.758;6.096;2023-02-01T03:28:48;5.30;99.90
43043;DHT22;28667;50.758;6.096;2023-02-01T03:31:15;5.30;99.90
43043;DHT22;28667;50.758;6.096;2023-02-01T03:33:41;5.30;99.90
43043;DHT22;28667;50.758;6.096;2023-02-01T03:38:54;5.30;99.90
43043;DHT22;28667;50.758;6.096;2023-02-01T03:41:27;5.30;99.90
43043;DHT22;28667;50.758;6.096;2023-02-01T03:46:36;5.20;99.90
43043;DHT22;28667;50.758;6.096;2023-02-01T03:49:05;5.20;99.90
43043;DHT22;28667;50.758;6.096;2023-02-01T03:51:32;5.10;99.90
43043;DHT22;28667;50.758;6.096;2023-02-01T03:53:58;5.10;99.90
43043;DHT22;28667;50.758;6.096;2023-02-01T03:56:24;5.10;99.90
43043;DHT22;28667;50.758;6.096;2023-02-01T03:58:50;5.00;99.90
43043;DHT22;28667;50.758;6.096;2023-02-01T04:01:25;5.00;99.90
43043;DHT22;28667;50.758;6.096;2023-02-01T04:03:51;4.90;99.90
43043;DHT22;28667;50.758;6.096;2023-02-01T04:06:17;4.90;99.90
43043;DHT22;28667;50.758;6.096;2023-02-01T04:08:43;4.80;99.90
43043;DHT22;28667;50.758;6.096;2023-02-01T04:11:08;4.80;99.90
43043;DHT22;28667;50.758;6.096;2023-02-01T04:13:34;4.70;99.90
43043;DHT22;28667;50.758;6.096;2023-02-01T04:16:00;4.70;99.90
43043;DHT22;28667;50.758;6.096;2023-02-01T04:18:26;4.60;99.90
43043;DHT22;28667;50.758;6.096;2023-02-01T04:20:51;4.60;99.90
43043;DHT22;28667;50.758;6.096;2023-02-01T04:23:17;4.50;99.90
43043;DHT22;28667;50.758;6.096;2023-02-01T04:25:42;4.50;99.90
43043;DHT22;28667;50.758;6.096;2023-02-01T04:28:08;4.40;99.90
43043;DHT22;28667;50.758;6.096;2023-02-01T04:30:34;4.40;99.90
43043;DHT22;28667;50.758;6.096;2023-02-01T04:33:00;4.40;99.90
43043;DHT22;28667;50.758;6.096;2023-02-01T04:35:25;4.30;99.90
43043;DHT22;28667;50.758;6.096;2023-02-01T04:37:51;4.30;99.90
43043;DHT22;28667;50.758;6.096;2023-02-01T04:40:16;4.30;99.90
43043;DHT22;28667;50.758;6.096;2023-02-01T04:42:42;4.20;99.90
43043;DHT22;28667;50.758;6.096;2023-02-01T04:45:08;4.20;99.90
43043;DHT22;28667;50.758;6.096;2023-02-01T04:47:34;4.20;99.90
43043;DHT22;28667;50.758;6.096;2023-02-01T04:50:00;4.20;99.90
43043;DHT22;28667;50.758;6.096;2023-02-01T04:52:25;4.20;99.90
43043;DHT22;28667;50.758;6.096;2023-02-01T04:54:52;4.20;99.90
43043;DHT22;28667;50.758;6.096;2023-02-01T04:57:19;4.20;99.90
43043;DHT22;28667;50.758;6.096;2023-02-01T04:59:45;4.30;99.90
43043;DHT22;28667;50.758;6.096;2023-02-01T05:02:10;4.30;99.90
43043;DHT22;28667;50.758;6.096;2023-02-01T05:04:36;4.30;99.90
43043;DHT22;28667;50.758;6.096;2023-02-01T05:07:02;4.30;99.90
43043;DHT22;28667;50.758;6.096;2023-02-01T05:09:27;4.20;99.90
43043;DHT22;28667;50.758;6.096;2023-02-01T05:11:53;4.20;99.90
43043;DHT22;28667;50.758;6.096;2023-02-01T05:14:37;4.10;99.90
43043;DHT22;28667;50.758;6.096;2023-02-01T05:17:03;4.10;99.90
43043;DHT22;28667;50.758;6.096;2023-02-01T05:19:28;4.10;99.90
43043;DHT22;28667;50.758;6.096;2023-02-01T05:21:54;4.10;99.90
43043;DHT22;28667;50.758;6.096;2023-02-01T05:24:19;4.00;99.90
43043;DHT22;28667;50.758;6.096;2023-02-01T05:26:46;4.00;99.90
43043;DHT22;28667;50.758;6.096;2023-02-01T05:29:12;4.00;99.90
43043;DHT22;28667;50.758;6.096;2023-02-01T05:31:38;4.00;99.90
43043;DHT22;28667;50.758;6.096;2023-02-01T05:34:04;3.90;99.90
43043;DHT22;28667;50.758;6.096;2023-02-01T05:36:30;3.90;99.90
43043;DHT22;28667;50.758;6.096;2023-02-01T05:38:56;3.90;99.90
43043;DHT22;28667;50.758;6.096;2023-02-01T05:41:21;3.90;99.90
43043;DHT22;28667;50.758;6.096;2023-02-01T05:43:47;3.80;99.90
43043;DHT22;28667;50.758;6.096;2023-02-01T05:46:12;3.80;99.90
43043;DHT22;28667;50.758;6.096;2023-02-01T05:48:39;3.80;99.90
43043;DHT22;28667;50.758;6.096;2023-02-01T05:51:04;3.80;99.90
43043;DHT22;28667;50.758;6.096;2023-02-01T05:53:30;3.80;99.90
43043;DHT22;28667;50.758;6.096;2023-02-01T05:55:55;3.80;99.90
43043;DHT22;28667;50.758;6.096;2023-02-01T05:58:21;3.80;99.90
43043;DHT22;28667;50.758;6.096;2023-02-01T06:00:47;3.80;99.90
43043;DHT22;28667;50.758;6.096;2023-02-01T06:03:12;3.80;99.90
43043;DHT22;28667;50.758;6.096;2023-02-01T06:05:38;3.70;99.90
43043;DHT22;28667;50.758;6.096;2023-02-01T06:08:04;3.70;99.90
43043;DHT22;28667;50.758;6.096;2023-02-01T06:10:29;3.70;99.90
43043;DHT22;28667;50.758;6.096;2023-02-01T06:12:55;3.70;99.90
43043;DHT22;28667;50.758;6.096;2023-02-01T06:15:20;3.70;99.90
43043;DHT22;28667;50.758;6.096;2023-02-01T06:17:46;3.60;99.90
43043;DHT22;28667;50.758;6.096;2023-02-01T06:20:13;3.60;99.90
43043;DHT22;28667;50.758;6.096;2023-02-01T06:22:38;3.60;99.90
43043;DHT22;28667;50.758;6.096;2023-02-01T06:25:05;3.60;99.90
43043;DHT22;28667;50.758;6.096;2023-02-01T06:27:31;3.60;99.90
43043;DHT22;28667;50.758;6.096;2023-02-01T06:29:57;3.60;99.90
43043;DHT22;28667;50.758;6.096;2023-02-01T06:32:22;3.60;99.90
43043;DHT22;28667;50.758;6.096;2023-02-01T06:34:49;3.50;99.90
43043;DHT22;28667;50.758;6.096;2023-02-01T06:37:14;3.50;99.90
43043;DHT22;28667;50.758;6.096;2023-02-01T06:39:40;3.50;99.90
43043;DHT22;28667;50.758;6.096;2023-02-01T06:42:06;3.50;99.90
43043;DHT22;28667;50.758;6.096;2023-02-01T06:44:31;3.50;99.90
43043;DHT22;28667;50.758;6.096;2023-02-01T06:46:57;3.50;99.90
43043;DHT22;28667;50.758;6.096;2023-02-01T06:49:22;3.50;99.90
43043;DHT22;28667;50.758;6.096;2023-02-01T06:51:48;3.50;99.90
43043;DHT22;28667;50.758;6.096;2023-02-01T06:54:14;3.50;99.90
43043;DHT22;28667;50.758;6.096;2023-02-01T06:56:39;3.50;99.90
43043;DHT22;28667;50.758;6.096;2023-02-01T06:59:06;3.50;99.90
43043;DHT22;28667;50.758;6.096;2023-02-01T07:01:31;3.50;99.90
43043;DHT22;28667;50.758;6.096;2023-02-01T07:03:57;3.50;99.90
43043;DHT22;28667;50.758;6.096;2023-02-01T07:06:23;3.50;99.90
43043;DHT22;28667;50.758;6.096;2023-02-01T07:08:48;3.50;99.90
43043;DHT22;28667;50.758;6.096;2023-02-01T07:11:14;3.50;99.90
43043;DHT22;28667;50.758;6.096;2023-02-01T07:13:41;3.40;99.90
43043;DHT22;28667;50.758;6.096;2023-02-01T07:16:08;3.50;99.90
43043;DHT22;28667;50.758;6.096;2023-02-01T07:18:35;3.50;99.90
43043;DHT22;28667;50.758;6.096;2023-02-01T07:21:00;3.50;99.90
43043;DHT22;28667;50.758;6.096;2023-02-01T07:23:26;3.50;99.90
43043;DHT22;28667;50.758;6.096;2023-02-01T07:25:53;3.50;99.90
43043;DHT22;28667;50.758;6.096;2023-02-01T07:28:18;3.60;99.90
43043;DHT22;28667;50.758;6.096;2023-02-01T07:30:44;3.60;99.90
43043;DHT22;28667;50.758;6.096;2023-02-01T07:33:22;3.60;99.90
43043;DHT22;28667;50.758;6.096;2023-02-01T07:35:49;3.70;99.90
43043;DHT22;28667;50.758;6.096;2023-02-01T07:38:14;3.80;99.90
43043;DHT22;28667;50.758;6.096;2023-02-01T07:40:40;3.80;99.90
43043;DHT22;28667;50.758;6.096;2023-02-01T07:43:06;3.70;99.90
43043;DHT22;28667;50.758;6.096;2023-02-01T07:45:33;3.80;99.90
43043;DHT22;28667;50.758;6.096;2023-02-01T07:47:59;3.80;99.90
43043;DHT22;28667;50.758;6.096;2023-02-01T07:50:25;3.70;99.90
43043;DHT22;28667;50.758;6.096;2023-02-01T07:52:50;3.70;99.90
43043;DHT22;28667;50.758;6.096;2023-02-01T07:55:16;3.70;99.90
43043;DHT22;28667;50.758;6.096;2023-02-01T07:57:41;3.70;99.90
43043;DHT22;28667;50.758;6.096;2023-02-01T08:00:08;3.70;99.90
43043;DHT22;28667;50.758;6.096;2023-02-01T08:02:52;3.70;99.90
43043;DHT22;28667;50.758;6.096;2023-02-01T08:05:17;3.70;99.90
43043;DHT22;28667;50.758;6.096;2023-02-01T08:07:43;3.70;99.90
43043;DHT22;28667;50.758;6.096;2023-02-01T08:10:09;3.70;99.90
43043;DHT22;28667;50.758;6.096;2023-02-01T08:12:38;3.70;99.90
43043;DHT22;28667;50.758;6.096;2023-02-01T08:15:04;3.70;99.90
43043;DHT22;28667;50.758;6.096;2023-02-01T08:17:29;3.70;99.90
43043;DHT22;28667;50.758;6.096;2023-02-01T08:19:55;3.80;99.90
43043;DHT22;28667;50.758;6.096;2023-02-01T08:22:21;3.80;99.90
43043;DHT22;28667;50.758;6.096;2023-02-01T08:24:47;3.90;99.90
43043;DHT22;28667;50.758;6.096;2023-02-01T08:27:13;4.00;99.90
43043;DHT22;28667;50.758;6.096;2023-02-01T08:29:39;4.10;99.90
43043;DHT22;28667;50.758;6.096;2023-02-01T08:32:04;4.10;99.90
43043;DHT22;28667;50.758;6.096;2023-02-01T08:34:30;4.20;99.90
43043;DHT22;28667;50.758;6.096;2023-02-01T08:36:56;4.20;99.90
43043;DHT22;28667;50.758;6.096;2023-02-01T08:39:25;4.30;99.90
43043;DHT22;28667;50.758;6.096;2023-02-01T08:41:51;4.30;99.90
43043;DHT22;28667;50.758;6.096;2023-02-01T08:44:35;4.30;99.90
43043;DHT22;28667;50.758;6.096;2023-02-01T08:47:02;4.40;99.90
43043;DHT22;28667;50.758;6.096;2023-02-01T08:49:28;4.40;99.90
43043;DHT22;28667;50.758;6.096;2023-02-01T08:51:54;4.40;99.90
43043;DHT22;28667;50.758;6.096;2023-02-01T08:54:20;4.50;99.90
43043;DHT22;28667;50.758;6.096;2023-02-01T08:56:45;4.50;99.90
43043;DHT22;28667;50.758;6.096;2023-02-01T08:59:11;4.50;99.90
43043;DHT22;28667;50.758;6.096;2023-02-01T09:01:37;4.60;99.90
43043;DHT22;28667;50.758;6.096;2023-02-01T09:04:02;4.60;99.90
43043;DHT22;28667;50.758;6.096;2023-02-01T09:06:28;4.60;99.90
43043;DHT22;28667;50.758;6.096;2023-02-01T09:08:53;4.70;99.90
43043;DHT22;28667;50.758;6.096;2023-02-01T09:11:19;4.70;99.90
43043;DHT22;28667;50.758;6.096;2023-02-01T09:13:45;4.90;99.90
43043;DHT22;28667;50.758;6.096;2023-02-01T09:16:12;4.90;99.90
43043;DHT22;28667;50.758;6.096;2023-02-01T09:18:37;4.90;99.90
43043;DHT22;28667;50.758;6.096;2023-02-01T09:21:04;5.00;99.90
43043;DHT22;28667;50.758;6.096;2023-02-01T09:23:29;5.00;99.90
43043;DHT22;28667;50.758;6.096;2023-02-01T09:25:58;5.00;99.90
43043;DHT22;28667;50.758;6.096;2023-02-01T09:28:24;5.10;99.90
43043;DHT22;28667;50.758;6.096;2023-02-01T09:30:49;5.10;99.90
43043;DHT22;28667;50.758;6.096;2023-02-01T09:33:15;5.10;99.90
43043;DHT22;28667;50.758;6.096;2023-02-01T09:35:42;5.10;99.90
43043;DHT22;28667;50.758;6.096;2023-02-01T09:38:08;5.10;99.90
43043;DHT22;28667;50.758;6.096;2023-02-01T09:40:34;5.20;99.90
43043;DHT22;28667;50.758;6.096;2023-02-01T09:43:13;5.20;99.90
43043;DHT22;28667;50.758;6.096;2023-02-01T09:45:53;5.20;99.90
43043;DHT22;28667;50.758;6.096;2023-02-01T09:48:24;5.30;99.90
43043;DHT22;28667;50.758;6.096;2023-02-01T09:50:55;5.20;99.90
43043;DHT22;28667;50.758;6.096;2023-02-01T09:55:48;5.20;99.90
43043;DHT22;28667;50.758;6.096;2023-02-01T10:00:46;5.20;99.90
43043;DHT22;28667;50.758;6.096;2023-02-01T10:03:14;5.20;99.90
43043;DHT22;28667;50.758;6.096;2023-02-01T10:10:51;5.10;99.90
43043;DHT22;28667;50.758;6.096;2023-02-01T10:13:25;5.10;99.90
43043;DHT22;28667;50.758;6.096;2023-02-01T10:23:53;5.10;99.90
43043;DHT22;28667;50.758;6.096;2023-02-01T10:26:25;5.10;99.90
43043;DHT22;28667;50.758;6.096;2023-02-01T10:28:53;5.10;99.90
43043;DHT22;28667;50.758;6.096;2023-02-01T10:31:20;5.10;99.90
43043;DHT22;28667;50.758;6.096;2023-02-01T10:33:51;5.10;99.90
43043;DHT22;28667;50.758;6.096;2023-02-01T10:39:03;5.20;99.90
43043;DHT22;28667;50.758;6.096;2023-02-01T10:41:33;5.30;99.90
43043;DHT22;28667;50.758;6.096;2023-02-01T10:43:59;5.30;99.90
43043;DHT22;28667;50.758;6.096;2023-02-01T10:46:25;5.40;99.90
43043;DHT22;28667;50.758;6.096;2023-02-01T10:48:52;5.50;99.90
43043;DHT22;28667;50.758;6.096;2023-02-01T10:51:28;5.50;99.90
43043;DHT22;28667;50.758;6.096;2023-02-01T10:56:22;5.60;99.90
43043;DHT22;28667;50.758;6.096;2023-02-01T10:58:49;5.70;99.90
43043;DHT22;28667;50.758;6.096;2023-02-01T11:01:19;5.70;99.90
43043;DHT22;28667;50.758;6.096;2023-02-01T11:08:45;5.70;99.90
43043;DHT22;28667;50.758;6.096;2023-02-01T11:11:11;5.70;99.90
43043;DHT22;28667;50.758;6.096;2023-02-01T11:13:37;5.80;99.90
43043;DHT22;28667;50.758;6.096;2023-02-01T11:16:04;5.80;99.90
43043;DHT22;28667;50.758;6.096;2023-02-01T11:18:36;5.80;99.90
43043;DHT22;28667;50.758;6.096;2023-02-01T11:21:03;5.80;99.90
43043;DHT22;28667;50.758;6.096;2023-02-01T11:23:29;5.80;99.90
43043;DHT22;28667;50.758;6.096;2023-02-01T11:26:00;5.80;99.90
43043;DHT22;28667;50.758;6.096;2023-02-01T11:28:27;5.90;99.90
43043;DHT22;28667;50.758;6.096;2023-02-01T11:30:55;5.90;99.90
43043;DHT22;28667;50.758;6.096;2023-02-01T11:33:23;6.00;99.90
43043;DHT22;28667;50.758;6.096;2023-02-01T11:35:52;5.90;99.90
43043;DHT22;28667;50.758;6.096;2023-02-01T11:38:29;6.00;99.90
43043;DHT22;28667;50.758;6.096;2023-02-01T11:40:55;6.00;99.90
43043;DHT22;28667;50.758;6.096;2023-02-01T11:43:36;6.00;99.90
43043;DHT22;28667;50.758;6.096;2023-02-01T11:46:02;6.10;99.90
43043;DHT22;28667;50.758;6.096;2023-02-01T11:48:30;6.30;99.90
43043;DHT22;28667;50.758;6.096;2023-02-01T11:51:04;6.40;99.90
43043;DHT22;28667;50.758;6.096;2023-02-01T12:10:55;6.70;99.90
43043;DHT22;28667;50.758;6.096;2023-02-01T12:26:17;6.70;99.90
43043;DHT22;28667;50.758;6.096;2023-02-01T12:28:49;6.70;99.90
43043;DHT22;28667;50.758;6.096;2023-02-01T12:39:23;6.60;99.90
43043;DHT22;28667;50.758;6.096;2023-02-01T12:44:32;6.60;99.90
43043;DHT22;28667;50.758;6.096;2023-02-01T12:49:34;6.50;99.90
43043;DHT22;28667;50.758;6.096;2023-02-01T12:52:03;6.60;99.90
43043;DHT22;28667;50.758;6.096;2023-02-01T12:57:02;6.50;99.90
43043;DHT22;28667;50.758;6.096;2023-02-01T12:59:44;6.50;99.90
43043;DHT22;28667;50.758;6.096;2023-02-01T13:08:11;6.40;99.90
43043;DHT22;28667;50.758;6.096;2023-02-01T13:10:18;6.40;99.90
43043;DHT22;28667;50.758;6.096;2023-02-01T13:15:16;6.40;99.90
43043;DHT22;28667;50.758;6.096;2023-02-01T13:17:42;6.40;99.90
43043;DHT22;28667;50.758;6.096;2023-02-01T13:23:00;6.40;99.90
43043;DHT22;28667;50.758;6.096;2023-02-01T13:25:29;6.40;99.90
43043;DHT22;28667;50.758;6.096;2023-02-01T13:27:58;6.40;99.90
43043;DHT22;28667;50.758;6.096;2023-02-01T13:30:28;6.40;99.90
43043;DHT22;28667;50.758;6.096;2023-02-01T13:43:30;6.40;99.90
43043;DHT22;28667;50.758;6.096;2023-02-01T13:45:57;6.40;99.90
43043;DHT22;28667;50.758;6.096;2023-02-01T13:48:29;6.40;99.90
43043;DHT22;28667;50.758;6.096;2023-02-01T13:50:56;6.50;99.90
43043;DHT22;28667;50.758;6.096;2023-02-01T13:53:29;6.50;99.90
43043;DHT22;28667;50.758;6.096;2023-02-01T13:56:03;6.50;99.90
43043;DHT22;28667;50.758;6.096;2023-02-01T14:03:45;6.50;99.90
43043;DHT22;28667;50.758;6.096;2023-02-01T14:06:16;6.50;99.90
43043;DHT22;28667;50.758;6.096;2023-02-01T14:08:42;6.50;99.90
43043;DHT22;28667;50.758;6.096;2023-02-01T14:13:52;6.50;99.90
43043;DHT22;28667;50.758;6.096;2023-02-01T14:16:18;6.50;99.90
43043;DHT22;28667;50.758;6.096;2023-02-01T14:23:38;6.60;99.90
43043;DHT22;28667;50.758;6.096;2023-02-01T14:26:06;6.60;99.90
43043;DHT22;28667;50.758;6.096;2023-02-01T14:28:34;6.70;99.90
43043;DHT22;28667;50.758;6.096;2023-02-01T14:31:00;6.70;99.90
43043;DHT22;28667;50.758;6.096;2023-02-01T14:33:40;6.70;99.90
43043;DHT22;28667;50.758;6.096;2023-02-01T14:36:07;6.70;99.90
43043;DHT22;28667;50.758;6.096;2023-02-01T14:38:34;6.70;99.90
43043;DHT22;28667;50.758;6.096;2023-02-01T14:41:11;6.70;99.90
43043;DHT22;28667;50.758;6.096;2023-02-01T14:47:01;6.80;99.90
43043;DHT22;28667;50.758;6.096;2023-02-01T14:49:08;6.80;99.90
43043;DHT22;28667;50.758;6.096;2023-02-01T14:51:35;6.80;99.90
43043;DHT22;28667;50.758;6.096;2023-02-01T14:54:02;6.80;99.90
43043;DHT22;28667;50.758;6.096;2023-02-01T14:56:27;6.90;99.90
43043;DHT22;28667;50.758;6.096;2023-02-01T14:59:06;6.90;99.90
43043;DHT22;28667;50.758;6.096;2023-02-01T15:01:37;6.90;99.90
43043;DHT22;28667;50.758;6.096;2023-02-01T15:04:12;6.90;99.90
43043;DHT22;28667;50.758;6.096;2023-02-01T15:14:19;6.90;99.90
43043;DHT22;28667;50.758;6.096;2023-02-01T15:16:44;6.90;99.90
43043;DHT22;28667;50.758;6.096;2023-02-01T15:19:15;6.90;99.90
43043;DHT22;28667;50.758;6.096;2023-02-01T15:21:44;6.90;99.90
43043;DHT22;28667;50.758;6.096;2023-02-01T15:24:12;6.90;99.90
43043;DHT22;28667;50.758;6.096;2023-02-01T15:26:38;6.90;99.90
43043;DHT22;28667;50.758;6.096;2023-02-01T15:29:04;6.90;99.90
43043;DHT22;28667;50.758;6.096;2023-02-01T15:31:33;6.80;99.90
43043;DHT22;28667;50.758;6.096;2023-02-01T15:33:59;6.80;99.90
43043;DHT22;28667;50.758;6.096;2023-02-01T15:36:25;6.70;99.90
43043;DHT22;28667;50.758;6.096;2023-02-01T15:39:13;6.70;99.90
43043;DHT22;28667;50.758;6.096;2023-02-01T15:41:51;6.60;99.90
43043;DHT22;28667;50.758;6.096;2023-02-01T15:44:21;6.50;99.90
43043;DHT22;28667;50.758;6.096;2023-02-01T15:46:52;6.50;99.90
43043;DHT22;28667;50.758;6.096;2023-02-01T15:49:19;6.40;99.90
43043;DHT22;28667;50.758;6.096;2023-02-01T15:51:46;6.40;99.90
43043;DHT22;28667;50.758;6.096;2023-02-01T15:54:15;6.30;99.90
43043;DHT22;28667;50.758;6.096;2023-02-01T15:56:49;6.30;99.90
43043;DHT22;28667;50.758;6.096;2023-02-01T15:59:22;6.20;99.90
43043;DHT22;28667;50.758;6.096;2023-02-01T16:01:48;6.20;99.90
43043;DHT22;28667;50.758;6.096;2023-02-01T16:06:46;6.10;99.90
43043;DHT22;28667;50.758;6.096;2023-02-01T16:09:14;6.10;99.90
43043;DHT22;28667;50.758;6.096;2023-02-01T16:11:41;6.10;99.90
43043;DHT22;28667;50.758;6.096;2023-02-01T16:14:07;6.00;99.90
43043;DHT22;28667;50.758;6.096;2023-02-01T16:16:32;6.00;99.90
43043;DHT22;28667;50.758;6.096;2023-02-01T16:18:58;5.90;99.90
43043;DHT22;28667;50.758;6.096;2023-02-01T16:21:24;5.90;99.90
43043;DHT22;28667;50.758;6.096;2023-02-01T16:23:50;5.80;99.90
43043;DHT22;28667;50.758;6.096;2023-02-01T16:26:16;5.80;99.90
43043;DHT22;28667;50.758;6.096;2023-02-01T16:28:41;5.80;99.90
43043;DHT22;28667;50.758;6.096;2023-02-01T16:31:10;5.80;99.90
43043;DHT22;28667;50.758;6.096;2023-02-01T16:33:42;5.80;99.90
43043;DHT22;28667;50.758;6.096;2023-02-01T16:36:07;5.80;99.90
43043;DHT22;28667;50.758;6.096;2023-02-01T16:38:33;5.80;99.90
43043;DHT22;28667;50.758;6.096;2023-02-01T16:40:59;5.80;99.90
43043;DHT22;28667;50.758;6.096;2023-02-01T16:43:25;5.70;99.90
43043;DHT22;28667;50.758;6.096;2023-02-01T16:45:52;5.70;99.90
43043;DHT22;28667;50.758;6.096;2023-02-01T16:48:24;5.70;99.90
43043;DHT22;28667;50.758;6.096;2023-02-01T16:50:56;5.60;99.90
43043;DHT22;28667;50.758;6.096;2023-02-01T16:53:22;5.60;99.90
43043;DHT22;28667;50.758;6.096;2023-02-01T16:55:49;5.50;99.90
43043;DHT22;28667;50.758;6.096;2023-02-01T16:58:18;5.50;99.90
43043;DHT22;28667;50.758;6.096;2023-02-01T17:00:44;5.50;99.90
43043;DHT22;28667;50.758;6.096;2023-02-01T17:03:11;5.50;99.90
43043;DHT22;28667;50.758;6.096;2023-02-01T17:05:45;5.50;99.90
43043;DHT22;28667;50.758;6.096;2023-02-01T17:08:12;5.50;99.90
43043;DHT22;28667;50.758;6.096;2023-02-01T17:10:39;5.40;99.90
43043;DHT22;28667;50.758;6.096;2023-02-01T17:13:04;5.50;99.90
43043;DHT22;28667;50.758;6.096;2023-02-01T17:15:33;5.50;99.90
43043;DHT22;28667;50.758;6.096;2023-02-01T17:18:00;5.50;99.90
43043;DHT22;28667;50.758;6.096;2023-02-01T17:20:28;5.50;99.90
43043;DHT22;28667;50.758;6.096;2023-02-01T17:22:54;5.50;99.90
43043;DHT22;28667;50.758;6.096;2023-02-01T17:25:20;5.50;99.90
43043;DHT22;28667;50.758;6.096;2023-02-01T17:27:47;5.50;99.90
43043;DHT22;28667;50.758;6.096;2023-02-01T17:30:13;5.40;99.90
43043;DHT22;28667;50.758;6.096;2023-02-01T17:32:39;5.50;99.90
43043;DHT22;28667;50.758;6.096;2023-02-01T17:35:08;5.40;99.90
43043;DHT22;28667;50.758;6.096;2023-02-01T17:37:36;5.50;99.90
43043;DHT22;28667;50.758;6.096;2023-02-01T17:40:02;5.50;99.90
43043;DHT22;28667;50.758;6.096;2023-02-01T17:42:28;5.40;99.90
43043;DHT22;28667;50.758;6.096;2023-02-01T17:45:01;5.40;99.90
43043;DHT22;28667;50.758;6.096;2023-02-01T17:47:27;5.40;99.90
43043;DHT22;28667;50.758;6.096;2023-02-01T17:49:52;5.40;99.90
43043;DHT22;28667;50.758;6.096;2023-02-01T17:52:21;5.40;99.90
43043;DHT22;28667;50.758;6.096;2023-02-01T17:54:47;5.40;99.90
43043;DHT22;28667;50.758;6.096;2023-02-01T17:57:15;5.40;99.90
43043;DHT22;28667;50.758;6.096;2023-02-01T17:59:41;5.40;99.90
43043;DHT22;28667;50.758;6.096;2023-02-01T18:02:16;5.40;99.90
43043;DHT22;28667;50.758;6.096;2023-02-01T18:04:42;5.40;99.90
43043;DHT22;28667;50.758;6.096;2023-02-01T18:07:08;5.40;99.90
43043;DHT22;28667;50.758;6.096;2023-02-01T18:09:34;5.40;99.90
43043;DHT22;28667;50.758;6.096;2023-02-01T18:11:59;5.50;99.90
43043;DHT22;28667;50.758;6.096;2023-02-01T18:14:25;5.50;99.90
43043;DHT22;28667;50.758;6.096;2023-02-01T18:16:51;5.50;99.90
43043;DHT22;28667;50.758;6.096;2023-02-01T18:19:17;5.50;99.90
43043;DHT22;28667;50.758;6.096;2023-02-01T18:21:42;5.50;99.90
43043;DHT22;28667;50.758;6.096;2023-02-01T18:24:11;5.60;99.90
43043;DHT22;28667;50.758;6.096;2023-02-01T18:26:37;5.60;99.90
43043;DHT22;28667;50.758;6.096;2023-02-01T18:29:03;5.60;99.90